createdAt,value
2018-09-22T00:00:29.794Z,1.20
2018-09-22T00:02:57.040Z,1.00
2018-09-22T00:05:24.301Z,1.90
2018-09-22T00:07:51.509Z,1.63
2018-09-22T00:10:18.897Z,1.30
2018-09-22T00:12:47.102Z,1.37
2018-09-22T00:15:14.287Z,2.20
2018-09-22T00:17:41.651Z,1.47
2018-09-22T00:20:08.863Z,1.53
2018-09-22T00:22:36.278Z,1.57
2018-09-22T00:25:03.607Z,1.43
2018-09-22T00:27:30.763Z,1.13
2018-09-22T00:29:58.333Z,1.63
2018-09-22T00:32:25.537Z,1.57
2018-09-22T00:34:52.737Z,1.60
2018-09-22T00:37:19.928Z,1.67
2018-09-22T00:39:47.294Z,1.60
2018-09-22T00:42:14.703Z,1.60
2018-09-22T00:44:41.970Z,1.47
2018-09-22T00:47:09.329Z,1.27
2018-09-22T00:49:36.789Z,1.63
2018-09-22T00:52:03.979Z,1.40
2018-09-22T00:54:31.209Z,1.50
2018-09-22T00:56:58.400Z,1.33
2018-09-22T00:59:25.598Z,1.83
2018-09-22T01:01:52.804Z,1.57
2018-09-22T01:04:20.018Z,1.70
2018-09-22T01:06:47.235Z,1.33
2018-09-22T01:09:14.427Z,1.50
2018-09-22T01:11:41.666Z,2.13
2018-09-22T01:15:33.166Z,2.00
2018-09-22T01:18:00.341Z,1.17
2018-09-22T01:20:27.549Z,1.40
2018-09-22T01:22:54.758Z,1.43
2018-09-22T01:25:21.928Z,1.50
2018-09-22T01:27:49.175Z,1.10
2018-09-22T01:30:16.422Z,1.70
2018-09-22T01:32:43.762Z,1.67
2018-09-22T01:35:10.966Z,1.10
2018-09-22T01:37:38.160Z,1.50
2018-09-22T01:40:05.433Z,1.40
2018-09-22T01:42:32.962Z,1.47
2018-09-22T01:45:00.183Z,1.43
2018-09-22T01:47:27.370Z,1.60
2018-09-22T01:49:54.562Z,1.53
2018-09-22T01:52:21.839Z,1.40
2018-09-22T01:54:48.980Z,1.80
2018-09-22T01:57:16.198Z,1.40
2018-09-22T01:59:43.556Z,1.57
2018-09-22T02:02:10.747Z,1.60
2018-09-22T02:04:37.963Z,1.57
2018-09-22T02:07:05.215Z,2.00
2018-09-22T02:09:32.551Z,1.13
2018-09-22T02:11:59.759Z,1.27
2018-09-22T02:14:26.971Z,1.47
2018-09-22T02:16:54.130Z,1.83
2018-09-22T02:19:21.409Z,1.40
2018-09-22T02:21:48.579Z,1.73
2018-09-22T02:24:15.763Z,3.00
2018-09-22T02:26:43.210Z,2.00
2018-09-22T02:29:10.396Z,1.30
2018-09-22T02:31:37.793Z,1.30
2018-09-22T02:34:05.075Z,1.40
2018-09-22T02:36:32.298Z,1.77
2018-09-22T02:38:59.534Z,1.60
2018-09-22T02:41:26.801Z,1.43
2018-09-22T02:43:54.079Z,1.23
2018-09-22T02:46:21.318Z,1.43
2018-09-22T02:48:48.524Z,2.07
2018-09-22T02:51:15.704Z,1.40
2018-09-22T02:53:42.860Z,1.57
2018-09-22T02:56:10.097Z,1.90
2018-09-22T02:58:37.329Z,1.40
2018-09-22T03:01:04.587Z,1.30
2018-09-22T03:03:32.318Z,1.33
2018-09-22T03:05:59.676Z,1.27
2018-09-22T03:08:26.884Z,1.73
2018-09-22T03:10:54.099Z,1.60
2018-09-22T03:13:21.250Z,1.60
2018-09-22T03:15:48.526Z,1.97
2018-09-22T03:18:15.887Z,1.60
2018-09-22T03:20:43.103Z,1.63
2018-09-22T03:23:10.432Z,2.00
2018-09-22T03:25:37.613Z,1.67
2018-09-22T03:28:04.948Z,1.60
2018-09-22T03:30:32.387Z,1.43
2018-09-22T03:32:59.583Z,1.67
2018-09-22T03:35:26.899Z,1.67
2018-09-22T03:37:54.279Z,1.40
2018-09-22T03:40:21.478Z,1.50
2018-09-22T03:42:48.677Z,1.87
2018-09-22T03:45:16.203Z,1.33
2018-09-22T03:47:43.812Z,2.10
2018-09-22T03:50:11.015Z,1.50
2018-09-22T03:52:38.220Z,1.50
2018-09-22T03:55:05.397Z,1.70
2018-09-22T03:57:32.606Z,1.63
2018-09-22T03:59:59.788Z,1.40
2018-09-22T04:02:27.023Z,2.00
2018-09-22T04:04:54.228Z,1.80
2018-09-22T04:07:21.410Z,2.20
2018-09-22T04:09:48.593Z,1.57
2018-09-22T04:12:15.822Z,1.93
2018-09-22T04:14:43.403Z,1.57
2018-09-22T04:17:10.615Z,1.40
2018-09-22T04:19:37.792Z,1.60
2018-09-22T04:22:05.085Z,1.50
2018-09-22T04:24:32.405Z,1.60
2018-09-22T04:26:59.561Z,2.07
2018-09-22T04:29:27.080Z,1.67
2018-09-22T04:31:54.247Z,1.77
2018-09-22T04:34:21.512Z,1.97
2018-09-22T04:36:48.778Z,1.43
2018-09-22T04:39:16.002Z,1.67
2018-09-22T04:41:44.226Z,1.37
2018-09-22T04:44:11.657Z,1.50
2018-09-22T04:46:39.158Z,1.97
2018-09-22T04:49:06.378Z,1.60
2018-09-22T04:51:33.608Z,1.53
2018-09-22T04:54:00.824Z,2.17
2018-09-22T04:56:29.097Z,1.50
2018-09-22T04:58:56.717Z,1.53
2018-09-22T05:01:24.112Z,1.83
2018-09-22T05:03:51.594Z,1.67
2018-09-22T05:06:18.819Z,1.80
2018-09-22T05:08:46.025Z,1.70
2018-09-22T05:11:13.366Z,1.63
2018-09-22T05:13:40.561Z,1.87
2018-09-22T05:16:07.863Z,1.87
2018-09-22T05:18:35.743Z,1.73
2018-09-22T05:21:04.616Z,1.70
2018-09-22T05:23:31.879Z,1.47
2018-09-22T05:25:59.142Z,1.80
2018-09-22T05:28:26.334Z,1.80
2018-09-22T05:30:53.549Z,1.50
2018-09-22T05:33:20.798Z,1.83
2018-09-22T05:35:47.965Z,1.50
2018-09-22T05:38:15.233Z,1.20
2018-09-22T05:40:42.749Z,1.80
2018-09-22T05:43:09.948Z,2.07
2018-09-22T05:45:37.170Z,1.53
2018-09-22T05:48:04.417Z,1.37
2018-09-22T05:50:31.660Z,1.90
2018-09-22T05:52:58.859Z,1.93
2018-09-22T05:55:26.062Z,1.70
2018-09-22T05:57:53.274Z,2.20
2018-09-22T06:00:20.567Z,2.07
2018-09-22T06:02:47.910Z,2.27
2018-09-22T06:05:15.281Z,1.97
2018-09-22T06:07:42.478Z,2.10
2018-09-22T06:10:09.788Z,2.53
2018-09-22T06:12:37.002Z,2.00
2018-09-22T06:15:04.387Z,2.50
2018-09-22T06:17:31.571Z,1.40
2018-09-22T06:19:58.806Z,1.97
2018-09-22T06:22:26.041Z,2.00
2018-09-22T06:24:53.247Z,3.50
2018-09-22T06:27:21.699Z,2.50
2018-09-22T06:31:13.531Z,1.90
2018-09-22T06:33:40.781Z,1.50
2018-09-22T06:36:07.991Z,3.43
2018-09-22T06:38:35.191Z,2.90
2018-09-22T06:41:02.447Z,2.20
2018-09-22T06:43:29.690Z,2.40
2018-09-22T06:45:57.297Z,3.97
2018-09-22T06:48:24.547Z,2.00
2018-09-22T06:50:51.840Z,2.30
2018-09-22T06:53:19.034Z,3.00
2018-09-22T06:55:46.487Z,2.00
2018-09-22T06:58:14.045Z,2.50
2018-09-22T07:00:41.288Z,2.40
2018-09-22T07:03:08.533Z,2.63
2018-09-22T07:05:35.806Z,2.73
2018-09-22T07:08:02.999Z,3.70
2018-09-22T07:10:30.311Z,3.10
2018-09-22T07:12:57.513Z,3.07
2018-09-22T07:15:24.809Z,2.47
2018-09-22T07:17:52.059Z,2.67
2018-09-22T07:20:19.284Z,2.87
2018-09-22T07:22:52.028Z,2.70
2018-09-22T07:25:19.298Z,2.60
2018-09-22T07:27:46.630Z,2.43
2018-09-22T07:30:13.969Z,2.37
2018-09-22T07:32:41.262Z,3.00
2018-09-22T07:35:08.564Z,2.50
2018-09-22T07:37:35.916Z,2.50
2018-09-22T07:40:03.189Z,2.27
2018-09-22T07:47:15.506Z,2.23
2018-09-22T07:49:42.762Z,3.20
2018-09-22T07:52:10.344Z,2.50
2018-09-22T07:54:37.672Z,3.30
2018-09-22T07:57:05.064Z,2.80
2018-09-22T07:59:32.467Z,2.60
2018-09-22T08:01:59.805Z,2.83
2018-09-22T08:04:27.302Z,3.27
2018-09-22T08:06:55.102Z,2.67
2018-09-22T08:09:22.319Z,3.83
2018-09-22T08:11:49.588Z,2.70
2018-09-22T08:14:16.824Z,3.73
2018-09-22T08:16:44.062Z,2.43
2018-09-22T08:19:11.447Z,2.73
2018-09-22T08:21:38.692Z,2.27
2018-09-22T08:24:07.126Z,2.50
2018-09-22T08:26:34.424Z,2.60
2018-09-22T08:29:01.918Z,2.47
2018-09-22T08:31:29.106Z,2.70
2018-09-22T08:33:56.325Z,2.77
2018-09-22T08:36:23.895Z,2.67
2018-09-22T08:38:51.219Z,2.70
2018-09-22T08:41:18.637Z,2.03
2018-09-22T08:43:46.105Z,2.50
2018-09-22T08:46:13.242Z,2.60
2018-09-22T08:48:40.558Z,2.03
2018-09-22T08:51:07.885Z,2.20
2018-09-22T08:53:35.522Z,2.40
2018-09-22T08:56:02.722Z,2.53
2018-09-22T08:58:29.960Z,2.43
2018-09-22T09:00:57.324Z,3.00
2018-09-22T09:03:24.773Z,3.10
2018-09-22T09:05:52.085Z,2.57
2018-09-22T09:08:19.282Z,2.33
2018-09-22T09:10:46.897Z,3.00
2018-09-22T09:13:14.358Z,3.07
2018-09-22T09:15:41.643Z,2.30
2018-09-22T09:18:08.901Z,2.87
2018-09-22T09:20:36.090Z,3.10
2018-09-22T09:23:03.315Z,3.07
2018-09-22T09:25:30.588Z,5.13
2018-09-22T09:27:57.910Z,3.80
2018-09-22T09:30:25.123Z,3.30
2018-09-22T09:32:52.419Z,2.80
2018-09-22T09:35:20.396Z,3.10
2018-09-22T09:37:47.666Z,3.10
2018-09-22T09:40:15.121Z,3.67
2018-09-22T09:42:42.495Z,3.47
2018-09-22T09:45:09.911Z,2.83
2018-09-22T09:47:37.138Z,4.03
2018-09-22T09:50:04.472Z,4.60
2018-09-22T09:52:31.692Z,3.43
2018-09-22T09:54:59.060Z,3.67
2018-09-22T09:57:26.448Z,4.40
2018-09-22T09:59:53.679Z,3.80
2018-09-22T10:02:20.987Z,3.23
2018-09-22T10:04:48.291Z,4.60
2018-09-22T10:07:15.623Z,7.40
2018-09-22T10:09:42.838Z,8.13
2018-09-22T10:12:10.246Z,4.00
2018-09-22T10:14:37.542Z,3.00
2018-09-22T10:17:04.859Z,3.33
2018-09-22T10:19:32.074Z,2.17
2018-09-22T10:21:59.382Z,2.20
2018-09-22T10:24:26.800Z,2.80
2018-09-22T10:26:54.367Z,2.40
2018-09-22T10:29:21.615Z,2.33
2018-09-22T10:31:49.176Z,2.33
2018-09-22T10:34:16.434Z,2.80
2018-09-22T10:36:43.765Z,2.73
2018-09-22T10:39:11.874Z,2.43
2018-09-22T10:41:39.494Z,2.13
2018-09-22T10:44:06.767Z,2.50
2018-09-22T10:46:34.032Z,2.50
2018-09-22T10:49:01.315Z,3.23
2018-09-22T10:51:29.145Z,3.23
2018-09-22T10:53:56.364Z,3.33
2018-09-22T10:56:23.782Z,2.63
2018-09-22T10:58:50.961Z,2.07
2018-09-22T11:01:18.275Z,2.27
2018-09-22T11:03:45.947Z,2.60
2018-09-22T11:06:13.367Z,2.10
2018-09-22T11:08:40.598Z,2.33
2018-09-22T11:11:07.860Z,2.00
2018-09-22T11:13:35.241Z,2.30
2018-09-22T11:16:02.657Z,2.73
2018-09-22T11:18:29.982Z,2.40
2018-09-22T11:20:57.302Z,2.70
2018-09-22T11:23:24.773Z,2.53
2018-09-22T11:25:52.171Z,2.90
2018-09-22T11:28:19.633Z,2.07
2018-09-22T11:30:48.527Z,3.10
2018-09-22T11:33:16.650Z,2.93
2018-09-22T11:35:44.162Z,2.90
2018-09-22T11:38:11.572Z,3.43
2018-09-22T11:40:39.038Z,2.70
2018-09-22T11:43:06.252Z,3.73
2018-09-22T11:45:33.490Z,2.87
2018-09-22T11:48:00.723Z,3.07
2018-09-22T11:50:27.945Z,2.63
2018-09-22T11:52:55.115Z,2.63
2018-09-22T11:55:22.339Z,3.10
2018-09-22T11:57:49.872Z,2.33
2018-09-22T12:02:58.558Z,3.90
2018-09-22T12:05:25.842Z,2.77
2018-09-22T12:07:53.101Z,2.70
2018-09-22T12:10:20.374Z,2.50
2018-09-22T12:12:47.594Z,2.70
2018-09-22T12:15:14.892Z,3.30
2018-09-22T12:17:43.802Z,2.50
2018-09-22T12:20:11.259Z,2.00
2018-09-22T12:22:38.586Z,2.50
2018-09-22T12:25:05.909Z,1.83
2018-09-22T12:27:33.101Z,2.53
2018-09-22T12:30:00.340Z,2.47
2018-09-22T12:32:28.324Z,2.50
2018-09-22T12:34:55.704Z,2.90
2018-09-22T12:37:22.931Z,2.40
2018-09-22T12:39:50.143Z,2.13
2018-09-22T12:42:17.337Z,2.33
2018-09-22T12:44:44.637Z,2.30
2018-09-22T12:47:11.899Z,2.30
2018-09-22T12:49:39.105Z,2.20
2018-09-22T12:52:06.692Z,2.10
2018-09-22T12:54:34.114Z,2.30
2018-09-22T12:57:01.354Z,2.10
2018-09-22T12:59:29.401Z,2.00
2018-09-22T13:01:57.647Z,2.47
2018-09-22T13:04:26.296Z,1.87
2018-09-22T13:06:53.528Z,2.00
2018-09-22T13:09:21.290Z,2.07
2018-09-22T13:11:48.545Z,2.27
2018-09-22T13:14:15.806Z,2.33
2018-09-22T13:16:43.451Z,2.30
2018-09-22T13:19:10.710Z,2.60
2018-09-22T13:21:37.915Z,2.23
2018-09-22T13:24:05.342Z,2.70
2018-09-22T13:26:32.626Z,2.50
2018-09-22T13:28:59.902Z,2.43
2018-09-22T13:31:27.108Z,2.77
2018-09-22T13:33:54.435Z,2.10
2018-09-22T13:36:21.622Z,1.80
2018-09-22T13:38:48.889Z,2.33
2018-09-22T13:41:16.516Z,2.33
2018-09-22T13:43:43.764Z,2.27
2018-09-22T13:46:10.975Z,3.10
2018-09-22T13:48:38.189Z,1.73
2018-09-22T13:51:05.602Z,2.03
2018-09-22T13:53:32.917Z,1.90
2018-09-22T13:56:00.268Z,2.03
2018-09-22T13:58:27.559Z,2.00
2018-09-22T14:00:54.756Z,1.90
2018-09-22T14:03:22.266Z,1.93
2018-09-22T14:05:49.467Z,2.20
2018-09-22T14:08:16.759Z,2.40
2018-09-22T14:10:44.004Z,2.30
2018-09-22T14:13:11.273Z,2.20
2018-09-22T14:15:38.760Z,1.70
2018-09-22T14:18:06.244Z,1.80
2018-09-22T14:20:33.468Z,1.83
2018-09-22T14:23:00.776Z,2.13
2018-09-22T14:25:28.014Z,2.30
2018-09-22T14:27:55.403Z,2.00
2018-09-22T14:30:22.770Z,2.00
2018-09-22T14:32:50.177Z,1.90
2018-09-22T14:35:17.434Z,1.80
2018-09-22T14:37:44.917Z,1.80
2018-09-22T14:40:12.169Z,2.20
2018-09-22T14:42:39.923Z,1.90
2018-09-22T14:45:07.259Z,1.93
2018-09-22T14:47:34.464Z,1.40
2018-09-22T14:50:01.787Z,2.00
2018-09-22T14:52:29.089Z,2.53
2018-09-22T14:54:56.507Z,2.10
2018-09-22T14:57:23.713Z,1.97
2018-09-22T14:59:51.055Z,2.90
2018-09-22T15:02:18.309Z,2.27
2018-09-22T15:04:45.536Z,1.97
2018-09-22T15:07:12.926Z,1.90
2018-09-22T15:09:40.490Z,2.10
2018-09-22T15:12:08.481Z,2.30
2018-09-22T15:14:35.665Z,2.07
2018-09-22T15:17:03.012Z,1.87
2018-09-22T15:19:30.334Z,1.80
2018-09-22T15:21:57.613Z,2.07
2018-09-22T15:24:24.838Z,1.50
2018-09-22T15:26:52.201Z,2.13
2018-09-22T15:29:19.745Z,2.00
2018-09-22T15:31:47.045Z,4.57
2018-09-22T15:34:14.834Z,1.50
2018-09-22T15:36:42.406Z,2.40
2018-09-22T15:39:10.164Z,2.00
2018-09-22T15:41:37.496Z,2.20
2018-09-22T15:44:04.797Z,1.57
2018-09-22T15:46:32.028Z,1.90
2018-09-22T15:48:59.252Z,1.87
2018-09-22T15:51:28.011Z,1.73
2018-09-22T15:53:55.515Z,1.90
2018-09-22T15:56:22.906Z,1.73
2018-09-22T15:58:50.432Z,2.23
2018-09-22T16:01:18.688Z,2.17
2018-09-22T16:03:45.987Z,1.90
2018-09-22T16:06:13.401Z,1.50
2018-09-22T16:08:41.030Z,1.90
2018-09-22T16:11:08.246Z,2.70
2018-09-22T16:13:35.586Z,1.83
2018-09-22T16:16:02.998Z,1.20
2018-09-22T16:18:30.221Z,1.10
2018-09-22T16:20:57.391Z,1.50
2018-09-22T16:23:24.903Z,2.00
2018-09-22T16:25:52.231Z,1.00
2018-09-22T16:28:19.467Z,1.90
2018-09-22T16:30:46.740Z,1.60
2018-09-22T16:33:13.935Z,1.90
2018-09-22T16:35:41.421Z,1.27
2018-09-22T16:38:08.591Z,2.10
2018-09-22T16:40:35.851Z,1.30
2018-09-22T16:43:03.297Z,1.47
2018-09-22T16:45:30.576Z,1.37
2018-09-22T16:47:57.837Z,1.90
2018-09-22T16:50:25.127Z,1.97
2018-09-22T16:52:56.105Z,1.80
2018-09-22T16:55:23.420Z,1.50
2018-09-22T16:57:50.676Z,1.70
2018-09-22T17:00:18.076Z,1.70
2018-09-22T17:02:45.469Z,1.50
2018-09-22T17:05:13.054Z,3.80
2018-09-22T17:07:40.443Z,1.70
2018-09-22T17:10:07.932Z,1.10
2018-09-22T17:12:35.385Z,1.80
2018-09-22T17:15:02.611Z,1.50
2018-09-22T17:17:30.041Z,1.60
2018-09-22T17:19:57.335Z,2.13
2018-09-22T17:22:24.642Z,2.03
2018-09-22T17:24:51.929Z,1.80
2018-09-22T17:27:19.559Z,1.53
2018-09-22T17:29:46.874Z,1.80
2018-09-22T17:32:14.130Z,1.47
2018-09-22T17:34:41.607Z,1.63
2018-09-22T17:37:10.190Z,2.00
2018-09-22T17:39:37.415Z,1.30
2018-09-22T17:42:04.769Z,1.30
2018-09-22T17:44:32.031Z,1.13
2018-09-22T17:46:59.480Z,1.40
2018-09-22T17:49:26.997Z,1.33
2018-09-22T17:51:54.332Z,1.77
2018-09-22T17:54:22.038Z,1.77
2018-09-22T17:56:49.448Z,1.80
2018-09-22T17:59:16.957Z,1.70
2018-09-22T18:01:44.189Z,2.17
2018-09-22T18:04:11.465Z,2.70
2018-09-22T18:06:38.893Z,2.33
2018-09-22T18:09:06.793Z,2.03
2018-09-22T18:11:34.103Z,1.80
2018-09-22T18:14:01.553Z,1.70
2018-09-22T18:16:28.811Z,1.73
2018-09-22T18:18:56.438Z,1.37
2018-09-22T18:21:24.590Z,1.87
2018-09-22T18:23:51.999Z,2.23
2018-09-22T18:26:19.507Z,1.90
2018-09-22T18:28:46.943Z,2.17
2018-09-22T18:31:14.338Z,2.20
2018-09-22T18:33:41.604Z,1.70
2018-09-22T18:36:08.831Z,1.70
2018-09-22T18:38:36.050Z,1.67
2018-09-22T18:41:03.684Z,1.93
2018-09-22T18:43:31.281Z,1.83
2018-09-22T18:45:58.815Z,1.90
2018-09-22T18:48:26.264Z,2.03
2018-09-22T18:50:53.536Z,1.63
2018-09-22T18:53:20.839Z,1.63
2018-09-22T18:55:48.362Z,1.40
2018-09-22T18:58:15.634Z,1.60
2018-09-22T19:00:43.572Z,1.57
2018-09-22T19:03:10.881Z,1.87
2018-09-22T19:05:38.439Z,1.90
2018-09-22T19:08:05.974Z,1.70
2018-09-22T19:10:33.398Z,2.03
2018-09-22T19:13:01.906Z,1.90
2018-09-22T19:15:37.540Z,2.33
2018-09-22T19:18:11.052Z,2.30
2018-09-22T19:20:50.679Z,2.13
2018-09-22T19:23:36.939Z,2.27
2018-09-22T19:26:08.614Z,2.33
2018-09-22T19:28:43.935Z,1.70
2018-09-22T19:31:15.121Z,1.93
2018-09-22T19:33:48.721Z,1.60
2018-09-22T19:36:25.311Z,1.87
2018-09-22T19:38:58.378Z,1.87
2018-09-22T19:41:31.499Z,1.57
2018-09-22T19:44:07.138Z,1.90
2018-09-22T19:46:39.551Z,2.30
2018-09-22T19:49:14.288Z,2.27
2018-09-22T19:52:02.977Z,2.50
2018-09-22T19:54:30.212Z,2.63
2018-09-22T19:56:57.742Z,2.40
2018-09-22T19:59:25.572Z,1.57
2018-09-22T20:01:53.112Z,1.90
2018-09-22T20:04:20.587Z,2.10
2018-09-22T20:06:48.012Z,2.13
2018-09-22T20:09:15.544Z,1.90
2018-09-22T20:11:43.170Z,2.00
2018-09-22T20:14:10.446Z,2.20
2018-09-22T20:16:37.707Z,1.73
2018-09-22T20:19:04.970Z,2.00
2018-09-22T20:21:32.577Z,2.30
2018-09-22T20:23:59.909Z,2.20
2018-09-22T20:26:27.338Z,1.90
2018-09-22T20:28:54.777Z,1.97
2018-09-22T20:31:22.056Z,2.60
2018-09-22T20:33:49.374Z,2.37
2018-09-22T20:36:16.702Z,2.20
2018-09-22T20:38:44.132Z,2.13
2018-09-22T20:41:11.448Z,2.40
2018-09-22T20:43:38.691Z,2.40
2018-09-22T20:46:05.952Z,1.70
2018-09-22T20:48:33.198Z,2.00
2018-09-22T20:51:00.452Z,2.40
2018-09-22T20:53:27.866Z,1.97
2018-09-22T20:55:55.285Z,1.83
2018-09-22T20:58:22.587Z,1.90
2018-09-22T21:00:49.775Z,3.10
2018-09-22T21:03:17.041Z,2.97
2018-09-22T21:05:44.450Z,3.80
2018-09-22T21:08:11.705Z,3.50
2018-09-22T21:10:39.262Z,2.40
2018-09-22T21:13:06.737Z,2.53
2018-09-22T21:15:34.103Z,2.67
2018-09-22T21:18:01.584Z,3.00
2018-09-22T21:20:28.871Z,2.50
2018-09-22T21:22:56.151Z,2.70
2018-09-22T21:25:23.529Z,2.50
2018-09-22T21:27:50.767Z,3.07
2018-09-22T21:30:17.996Z,2.57
2018-09-22T21:32:45.292Z,1.90
2018-09-22T21:35:12.546Z,2.20
2018-09-22T21:37:39.799Z,2.50
2018-09-22T21:40:07.211Z,2.40
2018-09-22T21:42:34.546Z,2.40
2018-09-22T21:45:01.841Z,2.27
2018-09-22T21:47:29.192Z,1.80
2018-09-22T21:49:56.433Z,2.60
2018-09-22T21:52:23.661Z,1.77
2018-09-22T21:54:50.995Z,2.33
2018-09-22T21:57:18.415Z,2.03
2018-09-22T21:59:45.871Z,2.47
2018-09-22T22:02:13.283Z,2.40
2018-09-22T22:04:40.547Z,2.60
2018-09-22T22:07:07.950Z,2.40
2018-09-22T22:09:35.418Z,2.20
2018-09-22T22:12:02.765Z,2.17
2018-09-22T22:14:30.060Z,1.70
2018-09-22T22:16:57.313Z,2.10
2018-09-22T22:19:24.613Z,2.30
2018-09-22T22:21:52.065Z,2.57
2018-09-22T22:24:19.355Z,2.43
2018-09-22T22:26:46.558Z,2.30
2018-09-22T22:29:13.779Z,2.30
2018-09-22T22:31:41.071Z,1.90
2018-09-22T22:34:08.277Z,2.20
2018-09-22T22:36:35.659Z,2.10
2018-09-22T22:39:03.429Z,1.90
2018-09-22T22:41:31.702Z,2.30
2018-09-22T22:43:59.172Z,2.17
2018-09-22T22:46:26.503Z,1.90
2018-09-22T22:48:53.900Z,1.87
2018-09-22T22:51:21.083Z,2.23
2018-09-22T22:53:48.822Z,2.10
2018-09-22T22:56:16.797Z,1.97
2018-09-22T22:58:44.074Z,2.40
2018-09-22T23:01:11.321Z,2.07
2018-09-22T23:03:38.654Z,2.20
2018-09-22T23:06:05.928Z,2.37
2018-09-22T23:08:33.782Z,2.70
2018-09-22T23:11:01.043Z,2.50
2018-09-22T23:13:28.317Z,2.10
2018-09-22T23:15:55.575Z,2.20
2018-09-22T23:18:23.035Z,2.07
2018-09-22T23:20:50.305Z,2.33
2018-09-22T23:23:17.509Z,2.20
2018-09-22T23:25:44.734Z,2.00
2018-09-22T23:28:11.985Z,2.30
2018-09-22T23:30:39.376Z,1.87
2018-09-22T23:33:06.640Z,2.20
2018-09-22T23:35:33.900Z,1.90
2018-09-22T23:38:01.199Z,2.20
2018-09-22T23:40:28.759Z,2.43
2018-09-22T23:42:56.099Z,1.87
2018-09-22T23:45:24.820Z,1.70
2018-09-22T23:47:52.206Z,2.20
2018-09-22T23:50:19.477Z,2.23
2018-09-22T23:52:46.901Z,1.70
2018-09-22T23:55:14.087Z,2.10
2018-09-22T23:57:41.713Z,1.13
